Danville Regional Airport
KDAN : now visible

Airfield :











YOU CAN JOIN US ON...

 
LOGIN :

Register | Disclaimer

   EN    FR    IT 

 









Legend :    VFR   Marginal VFR   IFR   Intensive IFR   Very Intensive IFR
Visi :
Ceiling :
>= 8 km
>= 3000ft
5 to 8 km
1000 to 3000 ft
1500m to 5 km
500 to 1000 ft
800 to 1500m
200 to 500 ft
< 800m
< 200 ft
Symbols :   Thunderstorms  Fog  Heavy snow  Heavy precipitations  Wind > 20 kt






- Airport Elevation : 571 ft
- IATA code : DAN


KDAN - Danville Regional

CURRENT METAR :
  • 261653Z AUTO VRB03KT 10SM OVC006 11/09 A2986 RMK AO2 SLP105 T01110089 $

EXPIRED METARs :
  • 261625Z AUTO 07005KT 10SM BKN007 12/09 A2985 RMK AO2 T01170094 $
  • 261601Z AUTO 08005KT 10SM SCT006 12/09 A2986 RMK AO2 T01170094 $
  • 261551Z AUTO 06006KT 10SM BKN005 11/09 A2987 RMK AO2 $
  • 261530Z AUTO 09006KT 10SM SCT005 10/09 A2988 RMK AO2 T01000094 $
  • 261453Z AUTO 07005KT 7SM OVC002 09/09 A2989 RMK AO2 SLP115 T00940089 50001 $
  • 261443Z AUTO 07006KT 2SM BR OVC002 09/09 A2989 RMK AO2 VIS 3/4V5 T00890089 $

TAF KDAN
Valid from the 26 at 12:00 until the 27 at 12:00 UTC


261120Z 2612/2712 00000KT 3/4SM BR SCT001 BKN050
TEMPO 2612/2614 1/4SM FG OVC001
FM261430 VRB03KT P6SM SCT015 BKN250
FM261900 18007KT P6SM VCSH SCT050 BKN150
FM270000 22011G20KT 5SM SHRA OVC025
FM270300 28012G22KT P6SM BKN035
FM270600 30011G22KT P6SM SKC



MET'MAP, your aeronautical weather chart ! - Copyright ORBIFLY December 2007 - Disclaimer

ORBIFLY MET'MAP TEAM :

Programming & Development : Alexandra Zaïnal
Concept & original design : Baudouin d'Aumeries
Assistance for programming : Marc-Olivier Méhu
Technical & hardware support : Manuel Goepfert

Contact : metmap@orbifly.com




SOURCES & CREDITS :

   NOAA       Earth
Advisory